sensor_id;sensor_type;location;lat;lon;timestamp;P1;durP1;ratioP1;P2;durP2;ratioP2
45642;SDS011;31358;46.008;11.144;2022-07-23T00:00:04;10.55;;;6.28;;
45642;SDS011;31358;46.008;11.144;2022-07-23T00:02:30;13.25;;;6.68;;
45642;SDS011;31358;46.008;11.144;2022-07-23T00:04:56;13.23;;;6.30;;
45642;SDS011;31358;46.008;11.144;2022-07-23T00:07:22;10.13;;;7.10;;
45642;SDS011;31358;46.008;11.144;2022-07-23T00:09:47;11.98;;;6.68;;
45642;SDS011;31358;46.008;11.144;2022-07-23T00:12:13;8.20;;;6.50;;
45642;SDS011;31358;46.008;11.144;2022-07-23T00:14:38;10.43;;;6.72;;
45642;SDS011;31358;46.008;11.144;2022-07-23T00:17:04;8.20;;;6.22;;
45642;SDS011;31358;46.008;11.144;2022-07-23T00:19:30;8.70;;;6.50;;
45642;SDS011;31358;46.008;11.144;2022-07-23T00:21:55;7.65;;;5.65;;
45642;SDS011;31358;46.008;11.144;2022-07-23T00:24:21;13.20;;;6.82;;
45642;SDS011;31358;46.008;11.144;2022-07-23T00:26:47;9.80;;;7.20;;
45642;SDS011;31358;46.008;11.144;2022-07-23T00:29:12;9.35;;;6.65;;
45642;SDS011;31358;46.008;11.144;2022-07-23T00:31:38;13.10;;;6.80;;
45642;SDS011;31358;46.008;11.144;2022-07-23T00:34:04;10.38;;;5.95;;
45642;SDS011;31358;46.008;11.144;2022-07-23T00:36:29;11.88;;;6.25;;
45642;SDS011;31358;46.008;11.144;2022-07-23T00:38:56;7.88;;;6.53;;
45642;SDS011;31358;46.008;11.144;2022-07-23T00:41:22;8.32;;;6.25;;
45642;SDS011;31358;46.008;11.144;2022-07-23T00:43:48;8.27;;;6.25;;
45642;SDS011;31358;46.008;11.144;2022-07-23T00:46:18;11.30;;;7.00;;
45642;SDS011;31358;46.008;11.144;2022-07-23T00:48:47;9.88;;;7.00;;
45642;SDS011;31358;46.008;11.144;2022-07-23T00:51:15;9.10;;;6.72;;
45642;SDS011;31358;46.008;11.144;2022-07-23T00:53:41;9.95;;;7.55;;
45642;SDS011;31358;46.008;11.144;2022-07-23T00:56:07;11.95;;;6.68;;
45642;SDS011;31358;46.008;11.144;2022-07-23T00:58:34;10.95;;;7.15;;
45642;SDS011;31358;46.008;11.144;2022-07-23T01:01:01;10.40;;;6.18;;
45642;SDS011;31358;46.008;11.144;2022-07-23T01:03:27;9.00;;;6.13;;
45642;SDS011;31358;46.008;11.144;2022-07-23T01:05:53;11.32;;;6.97;;
45642;SDS011;31358;46.008;11.144;2022-07-23T01:08:19;8.63;;;6.50;;
45642;SDS011;31358;46.008;11.144;2022-07-23T01:10:45;9.25;;;6.63;;
45642;SDS011;31358;46.008;11.144;2022-07-23T01:13:14;11.02;;;7.00;;
45642;SDS011;31358;46.008;11.144;2022-07-23T01:15:40;14.20;;;6.78;;
45642;SDS011;31358;46.008;11.144;2022-07-23T01:18:06;11.05;;;6.93;;
45642;SDS011;31358;46.008;11.144;2022-07-23T01:20:33;10.63;;;7.07;;
45642;SDS011;31358;46.008;11.144;2022-07-23T01:22:59;11.57;;;6.65;;
45642;SDS011;31358;46.008;11.144;2022-07-23T01:25:25;12.52;;;7.13;;
45642;SDS011;31358;46.008;11.144;2022-07-23T01:27:51;9.70;;;6.53;;
45642;SDS011;31358;46.008;11.144;2022-07-23T01:30:18;9.63;;;6.60;;
45642;SDS011;31358;46.008;11.144;2022-07-23T01:32:45;13.68;;;6.72;;
45642;SDS011;31358;46.008;11.144;2022-07-23T01:35:10;10.82;;;6.82;;
45642;SDS011;31358;46.008;11.144;2022-07-23T01:37:36;8.30;;;5.93;;
45642;SDS011;31358;46.008;11.144;2022-07-23T01:40:03;9.73;;;6.55;;
45642;SDS011;31358;46.008;11.144;2022-07-23T01:42:30;9.35;;;6.60;;
45642;SDS011;31358;46.008;11.144;2022-07-23T01:44:55;10.65;;;6.60;;
45642;SDS011;31358;46.008;11.144;2022-07-23T01:47:21;11.32;;;6.68;;
45642;SDS011;31358;46.008;11.144;2022-07-23T01:49:47;9.30;;;7.10;;
45642;SDS011;31358;46.008;11.144;2022-07-23T01:52:12;8.98;;;6.65;;
45642;SDS011;31358;46.008;11.144;2022-07-23T01:54:38;10.35;;;6.60;;
45642;SDS011;31358;46.008;11.144;2022-07-23T01:57:04;9.30;;;6.63;;
45642;SDS011;31358;46.008;11.144;2022-07-23T01:59:30;11.30;;;7.75;;
45642;SDS011;31358;46.008;11.144;2022-07-23T02:01:56;10.48;;;6.97;;
45642;SDS011;31358;46.008;11.144;2022-07-23T02:04:22;11.45;;;6.72;;
45642;SDS011;31358;46.008;11.144;2022-07-23T02:06:49;10.57;;;6.88;;
45642;SDS011;31358;46.008;11.144;2022-07-23T02:09:15;10.23;;;7.13;;
45642;SDS011;31358;46.008;11.144;2022-07-23T02:11:41;9.02;;;6.70;;
45642;SDS011;31358;46.008;11.144;2022-07-23T02:14:07;10.20;;;7.15;;
45642;SDS011;31358;46.008;11.144;2022-07-23T02:16:33;8.60;;;5.82;;
45642;SDS011;31358;46.008;11.144;2022-07-23T02:18:59;10.57;;;6.60;;
45642;SDS011;31358;46.008;11.144;2022-07-23T02:21:24;13.25;;;6.80;;
45642;SDS011;31358;46.008;11.144;2022-07-23T02:23:50;9.50;;;6.40;;
45642;SDS011;31358;46.008;11.144;2022-07-23T02:26:16;9.73;;;6.75;;
45642;SDS011;31358;46.008;11.144;2022-07-23T02:28:41;10.02;;;6.68;;
45642;SDS011;31358;46.008;11.144;2022-07-23T02:31:07;10.35;;;6.50;;
45642;SDS011;31358;46.008;11.144;2022-07-23T02:33:33;8.90;;;7.18;;
45642;SDS011;31358;46.008;11.144;2022-07-23T02:35:59;11.32;;;6.40;;
45642;SDS011;31358;46.008;11.144;2022-07-23T02:38:25;8.77;;;7.00;;
45642;SDS011;31358;46.008;11.144;2022-07-23T02:40:51;11.90;;;6.05;;
45642;SDS011;31358;46.008;11.144;2022-07-23T02:43:17;9.13;;;6.93;;
45642;SDS011;31358;46.008;11.144;2022-07-23T02:45:42;9.52;;;6.82;;
45642;SDS011;31358;46.008;11.144;2022-07-23T02:48:08;10.80;;;6.40;;
45642;SDS011;31358;46.008;11.144;2022-07-23T02:50:34;11.77;;;6.85;;
45642;SDS011;31358;46.008;11.144;2022-07-23T02:52:59;9.65;;;6.80;;
45642;SDS011;31358;46.008;11.144;2022-07-23T02:55:25;8.02;;;6.55;;
45642;SDS011;31358;46.008;11.144;2022-07-23T02:57:51;8.88;;;6.85;;
45642;SDS011;31358;46.008;11.144;2022-07-23T03:00:17;11.60;;;7.13;;
45642;SDS011;31358;46.008;11.144;2022-07-23T03:02:43;11.13;;;6.90;;
45642;SDS011;31358;46.008;11.144;2022-07-23T03:05:08;11.00;;;6.38;;
45642;SDS011;31358;46.008;11.144;2022-07-23T03:07:34;8.18;;;6.50;;
45642;SDS011;31358;46.008;11.144;2022-07-23T03:10:00;9.68;;;6.32;;
45642;SDS011;31358;46.008;11.144;2022-07-23T03:12:26;11.23;;;7.05;;
45642;SDS011;31358;46.008;11.144;2022-07-23T03:14:52;9.35;;;7.15;;
45642;SDS011;31358;46.008;11.144;2022-07-23T03:17:17;8.95;;;6.95;;
45642;SDS011;31358;46.008;11.144;2022-07-23T03:19:43;9.68;;;7.25;;
45642;SDS011;31358;46.008;11.144;2022-07-23T03:22:09;9.50;;;7.68;;
45642;SDS011;31358;46.008;11.144;2022-07-23T03:24:35;11.70;;;7.70;;
45642;SDS011;31358;46.008;11.144;2022-07-23T03:27:18;11.55;;;6.72;;
45642;SDS011;31358;46.008;11.144;2022-07-23T03:29:45;9.55;;;6.68;;
45642;SDS011;31358;46.008;11.144;2022-07-23T03:32:10;9.60;;;6.40;;
45642;SDS011;31358;46.008;11.144;2022-07-23T03:34:36;12.70;;;6.88;;
45642;SDS011;31358;46.008;11.144;2022-07-23T03:37:03;10.23;;;7.13;;
45642;SDS011;31358;46.008;11.144;2022-07-23T03:39:29;11.85;;;7.93;;
45642;SDS011;31358;46.008;11.144;2022-07-23T03:41:55;13.10;;;7.45;;
45642;SDS011;31358;46.008;11.144;2022-07-23T03:44:21;11.50;;;6.55;;
45642;SDS011;31358;46.008;11.144;2022-07-23T03:46:47;7.97;;;6.93;;
45642;SDS011;31358;46.008;11.144;2022-07-23T03:49:12;9.38;;;6.68;;
45642;SDS011;31358;46.008;11.144;2022-07-23T03:51:38;10.70;;;7.38;;
45642;SDS011;31358;46.008;11.144;2022-07-23T03:54:04;9.98;;;7.30;;
45642;SDS011;31358;46.008;11.144;2022-07-23T03:56:29;9.45;;;6.55;;
45642;SDS011;31358;46.008;11.144;2022-07-23T03:58:55;9.82;;;7.75;;
45642;SDS011;31358;46.008;11.144;2022-07-23T04:01:21;10.77;;;7.05;;
45642;SDS011;31358;46.008;11.144;2022-07-23T04:03:47;11.13;;;7.93;;
45642;SDS011;31358;46.008;11.144;2022-07-23T04:06:12;15.18;;;7.70;;
45642;SDS011;31358;46.008;11.144;2022-07-23T04:08:38;8.52;;;6.93;;
45642;SDS011;31358;46.008;11.144;2022-07-23T04:11:04;11.27;;;7.32;;
45642;SDS011;31358;46.008;11.144;2022-07-23T04:13:29;10.35;;;7.07;;
45642;SDS011;31358;46.008;11.144;2022-07-23T04:15:57;11.95;;;7.38;;
45642;SDS011;31358;46.008;11.144;2022-07-23T04:18:23;10.25;;;7.20;;
45642;SDS011;31358;46.008;11.144;2022-07-23T04:20:50;10.57;;;6.72;;
45642;SDS011;31358;46.008;11.144;2022-07-23T04:23:16;10.23;;;6.88;;
45642;SDS011;31358;46.008;11.144;2022-07-23T04:25:42;10.13;;;6.68;;
45642;SDS011;31358;46.008;11.144;2022-07-23T04:28:08;9.23;;;7.25;;
45642;SDS011;31358;46.008;11.144;2022-07-23T04:30:33;8.55;;;6.80;;
45642;SDS011;31358;46.008;11.144;2022-07-23T04:32:59;8.98;;;6.38;;
45642;SDS011;31358;46.008;11.144;2022-07-23T04:35:25;8.75;;;6.57;;
45642;SDS011;31358;46.008;11.144;2022-07-23T04:37:51;10.95;;;7.60;;
45642;SDS011;31358;46.008;11.144;2022-07-23T04:40:16;10.20;;;7.18;;
45642;SDS011;31358;46.008;11.144;2022-07-23T04:42:42;13.82;;;7.43;;
45642;SDS011;31358;46.008;11.144;2022-07-23T04:45:08;9.75;;;6.78;;
45642;SDS011;31358;46.008;11.144;2022-07-23T04:47:34;10.68;;;7.22;;
45642;SDS011;31358;46.008;11.144;2022-07-23T04:49:59;10.45;;;6.05;;
45642;SDS011;31358;46.008;11.144;2022-07-23T04:52:25;11.43;;;7.18;;
45642;SDS011;31358;46.008;11.144;2022-07-23T04:54:51;8.48;;;6.45;;
45642;SDS011;31358;46.008;11.144;2022-07-23T04:57:16;10.55;;;7.15;;
45642;SDS011;31358;46.008;11.144;2022-07-23T04:59:42;10.40;;;7.40;;
45642;SDS011;31358;46.008;11.144;2022-07-23T05:02:08;10.07;;;7.10;;
45642;SDS011;31358;46.008;11.144;2022-07-23T05:04:33;11.15;;;7.80;;
45642;SDS011;31358;46.008;11.144;2022-07-23T05:06:59;8.30;;;6.68;;
45642;SDS011;31358;46.008;11.144;2022-07-23T05:09:25;8.98;;;6.80;;
45642;SDS011;31358;46.008;11.144;2022-07-23T05:11:51;9.48;;;7.18;;
45642;SDS011;31358;46.008;11.144;2022-07-23T05:14:16;10.38;;;7.72;;
45642;SDS011;31358;46.008;11.144;2022-07-23T05:16:42;9.05;;;6.80;;
45642;SDS011;31358;46.008;11.144;2022-07-23T05:19:08;9.55;;;6.95;;
45642;SDS011;31358;46.008;11.144;2022-07-23T05:21:34;9.10;;;6.93;;
45642;SDS011;31358;46.008;11.144;2022-07-23T05:23:59;9.95;;;6.35;;
45642;SDS011;31358;46.008;11.144;2022-07-23T05:26:25;17.15;;;7.38;;
45642;SDS011;31358;46.008;11.144;2022-07-23T05:28:51;8.00;;;5.70;;
45642;SDS011;31358;46.008;11.144;2022-07-23T05:31:17;11.55;;;6.13;;
45642;SDS011;31358;46.008;11.144;2022-07-23T05:33:42;9.02;;;6.45;;
45642;SDS011;31358;46.008;11.144;2022-07-23T05:36:09;8.27;;;5.93;;
45642;SDS011;31358;46.008;11.144;2022-07-23T05:38:35;13.38;;;5.70;;
45642;SDS011;31358;46.008;11.144;2022-07-23T05:41:01;9.32;;;4.93;;
45642;SDS011;31358;46.008;11.144;2022-07-23T05:43:26;9.32;;;4.57;;
45642;SDS011;31358;46.008;11.144;2022-07-23T05:45:52;9.55;;;4.53;;
45642;SDS011;31358;46.008;11.144;2022-07-23T05:48:18;9.20;;;3.70;;
45642;SDS011;31358;46.008;11.144;2022-07-23T05:50:44;4.88;;;3.20;;
45642;SDS011;31358;46.008;11.144;2022-07-23T05:53:11;10.93;;;3.30;;
45642;SDS011;31358;46.008;11.144;2022-07-23T05:55:36;4.80;;;2.70;;
45642;SDS011;31358;46.008;11.144;2022-07-23T05:58:02;9.02;;;2.22;;
45642;SDS011;31358;46.008;11.144;2022-07-23T06:00:28;5.65;;;2.70;;
45642;SDS011;31358;46.008;11.144;2022-07-23T06:02:54;5.53;;;2.20;;
45642;SDS011;31358;46.008;11.144;2022-07-23T06:05:20;6.20;;;2.28;;
45642;SDS011;31358;46.008;11.144;2022-07-23T06:07:45;7.03;;;2.10;;
45642;SDS011;31358;46.008;11.144;2022-07-23T06:10:11;6.55;;;1.92;;
45642;SDS011;31358;46.008;11.144;2022-07-23T06:12:37;6.20;;;2.15;;
45642;SDS011;31358;46.008;11.144;2022-07-23T06:15:03;3.08;;;1.60;;
45642;SDS011;31358;46.008;11.144;2022-07-23T06:17:29;3.40;;;1.55;;
45642;SDS011;31358;46.008;11.144;2022-07-23T06:19:55;11.75;;;2.72;;
45642;SDS011;31358;46.008;11.144;2022-07-23T06:22:21;2.60;;;1.40;;
45642;SDS011;31358;46.008;11.144;2022-07-23T06:24:47;3.22;;;1.42;;
45642;SDS011;31358;46.008;11.144;2022-07-23T06:27:13;3.97;;;1.45;;
45642;SDS011;31358;46.008;11.144;2022-07-23T06:29:39;2.58;;;1.38;;
45642;SDS011;31358;46.008;11.144;2022-07-23T06:32:05;3.83;;;1.40;;
45642;SDS011;31358;46.008;11.144;2022-07-23T06:34:32;3.75;;;1.50;;
45642;SDS011;31358;46.008;11.144;2022-07-23T06:36:58;3.95;;;1.35;;
45642;SDS011;31358;46.008;11.144;2022-07-23T06:39:24;5.20;;;1.30;;
45642;SDS011;31358;46.008;11.144;2022-07-23T06:41:50;5.70;;;1.50;;
45642;SDS011;31358;46.008;11.144;2022-07-23T06:44:16;4.15;;;1.77;;
45642;SDS011;31358;46.008;11.144;2022-07-23T06:46:42;6.43;;;1.70;;
45642;SDS011;31358;46.008;11.144;2022-07-23T06:49:08;3.33;;;1.30;;
45642;SDS011;31358;46.008;11.144;2022-07-23T06:51:33;4.32;;;1.50;;
45642;SDS011;31358;46.008;11.144;2022-07-23T06:53:59;3.72;;;1.40;;
45642;SDS011;31358;46.008;11.144;2022-07-23T06:56:25;3.38;;;1.23;;
45642;SDS011;31358;46.008;11.144;2022-07-23T06:58:51;2.33;;;1.02;;
45642;SDS011;31358;46.008;11.144;2022-07-23T07:01:17;3.28;;;1.13;;
45642;SDS011;31358;46.008;11.144;2022-07-23T07:03:42;2.45;;;1.40;;
45642;SDS011;31358;46.008;11.144;2022-07-23T07:06:08;2.83;;;0.88;;
45642;SDS011;31358;46.008;11.144;2022-07-23T07:08:34;8.98;;;1.27;;
45642;SDS011;31358;46.008;11.144;2022-07-23T07:10:59;2.17;;;1.13;;
45642;SDS011;31358;46.008;11.144;2022-07-23T07:13:25;2.22;;;1.20;;
45642;SDS011;31358;46.008;11.144;2022-07-23T07:15:51;5.38;;;0.93;;
45642;SDS011;31358;46.008;11.144;2022-07-23T07:18:16;3.40;;;1.30;;
45642;SDS011;31358;46.008;11.144;2022-07-23T07:20:42;3.15;;;1.30;;
45642;SDS011;31358;46.008;11.144;2022-07-23T07:23:08;4.93;;;1.20;;
45642;SDS011;31358;46.008;11.144;2022-07-23T07:25:34;4.95;;;1.45;;
45642;SDS011;31358;46.008;11.144;2022-07-23T07:27:59;3.60;;;1.38;;
45642;SDS011;31358;46.008;11.144;2022-07-23T07:30:25;10.23;;;2.40;;
45642;SDS011;31358;46.008;11.144;2022-07-23T07:32:51;3.47;;;1.48;;
45642;SDS011;31358;46.008;11.144;2022-07-23T07:35:17;10.07;;;1.40;;
45642;SDS011;31358;46.008;11.144;2022-07-23T07:37:43;1.70;;;0.90;;
45642;SDS011;31358;46.008;11.144;2022-07-23T07:40:08;4.40;;;1.58;;
45642;SDS011;31358;46.008;11.144;2022-07-23T07:42:34;3.78;;;1.10;;
45642;SDS011;31358;46.008;11.144;2022-07-23T07:45:08;7.00;;;2.03;;
45642;SDS011;31358;46.008;11.144;2022-07-23T07:47:34;36.80;;;3.03;;
45642;SDS011;31358;46.008;11.144;2022-07-23T07:50:00;2.45;;;0.98;;
45642;SDS011;31358;46.008;11.144;2022-07-23T07:52:25;5.93;;;1.40;;
45642;SDS011;31358;46.008;11.144;2022-07-23T07:54:51;3.97;;;1.42;;
45642;SDS011;31358;46.008;11.144;2022-07-23T07:57:17;11.73;;;1.83;;
45642;SDS011;31358;46.008;11.144;2022-07-23T07:59:42;10.05;;;1.60;;
45642;SDS011;31358;46.008;11.144;2022-07-23T08:02:08;4.13;;;1.85;;
45642;SDS011;31358;46.008;11.144;2022-07-23T08:04:34;9.35;;;1.63;;
45642;SDS011;31358;46.008;11.144;2022-07-23T08:06:59;2.63;;;1.25;;
45642;SDS011;31358;46.008;11.144;2022-07-23T08:09:25;2.88;;;1.27;;
45642;SDS011;31358;46.008;11.144;2022-07-23T08:11:50;4.03;;;1.30;;
45642;SDS011;31358;46.008;11.144;2022-07-23T08:14:17;4.32;;;1.80;;
45642;SDS011;31358;46.008;11.144;2022-07-23T08:16:43;3.70;;;1.45;;
45642;SDS011;31358;46.008;11.144;2022-07-23T08:19:08;3.10;;;1.40;;
45642;SDS011;31358;46.008;11.144;2022-07-23T08:21:34;3.72;;;1.85;;
45642;SDS011;31358;46.008;11.144;2022-07-23T08:24:00;3.30;;;1.70;;
45642;SDS011;31358;46.008;11.144;2022-07-23T08:26:25;10.57;;;1.95;;
45642;SDS011;31358;46.008;11.144;2022-07-23T08:28:51;2.88;;;1.77;;
45642;SDS011;31358;46.008;11.144;2022-07-23T08:31:17;3.28;;;1.50;;
45642;SDS011;31358;46.008;11.144;2022-07-23T08:33:43;3.25;;;1.42;;
45642;SDS011;31358;46.008;11.144;2022-07-23T08:36:09;4.72;;;1.65;;
45642;SDS011;31358;46.008;11.144;2022-07-23T08:38:35;3.22;;;1.55;;
45642;SDS011;31358;46.008;11.144;2022-07-23T08:41:00;3.10;;;1.70;;
45642;SDS011;31358;46.008;11.144;2022-07-23T08:43:28;5.18;;;1.92;;
45642;SDS011;31358;46.008;11.144;2022-07-23T08:45:55;6.88;;;2.30;;
45642;SDS011;31358;46.008;11.144;2022-07-23T08:48:23;5.80;;;1.83;;
45642;SDS011;31358;46.008;11.144;2022-07-23T08:50:51;9.02;;;1.65;;
45642;SDS011;31358;46.008;11.144;2022-07-23T08:53:18;5.28;;;1.90;;
45642;SDS011;31358;46.008;11.144;2022-07-23T08:55:46;4.53;;;1.67;;
45642;SDS011;31358;46.008;11.144;2022-07-23T08:58:13;9.48;;;2.40;;
45642;SDS011;31358;46.008;11.144;2022-07-23T09:00:39;3.97;;;1.80;;
45642;SDS011;31358;46.008;11.144;2022-07-23T09:03:05;3.13;;;1.80;;
45642;SDS011;31358;46.008;11.144;2022-07-23T09:05:31;4.63;;;2.33;;
45642;SDS011;31358;46.008;11.144;2022-07-23T09:10:44;4.38;;;1.50;;
45642;SDS011;31358;46.008;11.144;2022-07-23T09:13:32;3.55;;;1.65;;
45642;SDS011;31358;46.008;11.144;2022-07-23T09:15:57;3.10;;;1.70;;
45642;SDS011;31358;46.008;11.144;2022-07-23T09:18:39;6.55;;;2.08;;
45642;SDS011;31358;46.008;11.144;2022-07-23T09:21:15;6.70;;;2.10;;
45642;SDS011;31358;46.008;11.144;2022-07-23T09:29:09;4.95;;;2.25;;
45642;SDS011;31358;46.008;11.144;2022-07-23T09:32:00;3.47;;;1.80;;
45642;SDS011;31358;46.008;11.144;2022-07-23T09:34:28;3.70;;;2.17;;
45642;SDS011;31358;46.008;11.144;2022-07-23T09:37:14;3.58;;;1.88;;
45642;SDS011;31358;46.008;11.144;2022-07-23T09:39:44;14.20;;;1.97;;
45642;SDS011;31358;46.008;11.144;2022-07-23T09:42:19;2.90;;;1.83;;
45642;SDS011;31358;46.008;11.144;2022-07-23T09:44:50;5.88;;;2.40;;
45642;SDS011;31358;46.008;11.144;2022-07-23T09:47:17;6.43;;;1.85;;
45642;SDS011;31358;46.008;11.144;2022-07-23T09:52:46;2.42;;;1.27;;
45642;SDS011;31358;46.008;11.144;2022-07-23T09:55:13;2.60;;;1.40;;
45642;SDS011;31358;46.008;11.144;2022-07-23T09:57:40;7.00;;;2.25;;
45642;SDS011;31358;46.008;11.144;2022-07-23T10:00:07;3.40;;;1.80;;
45642;SDS011;31358;46.008;11.144;2022-07-23T10:02:35;3.65;;;1.58;;
45642;SDS011;31358;46.008;11.144;2022-07-23T10:05:02;5.68;;;2.72;;
45642;SDS011;31358;46.008;11.144;2022-07-23T10:07:28;7.47;;;1.80;;
45642;SDS011;31358;46.008;11.144;2022-07-23T10:09:58;3.03;;;1.52;;
45642;SDS011;31358;46.008;11.144;2022-07-23T10:12:25;3.80;;;1.30;;
45642;SDS011;31358;46.008;11.144;2022-07-23T10:15:09;9.63;;;1.75;;
45642;SDS011;31358;46.008;11.144;2022-07-23T10:17:35;7.72;;;1.58;;
45642;SDS011;31358;46.008;11.144;2022-07-23T10:20:02;4.68;;;1.40;;
45642;SDS011;31358;46.008;11.144;2022-07-23T10:22:29;4.57;;;1.58;;
45642;SDS011;31358;46.008;11.144;2022-07-23T10:25:00;5.25;;;1.48;;
45642;SDS011;31358;46.008;11.144;2022-07-23T10:39:15;3.90;;;1.30;;
45642;SDS011;31358;46.008;11.144;2022-07-23T10:41:43;2.17;;;1.15;;
45642;SDS011;31358;46.008;11.144;2022-07-23T10:44:13;4.47;;;1.45;;
45642;SDS011;31358;46.008;11.144;2022-07-23T10:47:02;2.42;;;1.20;;
45642;SDS011;31358;46.008;11.144;2022-07-23T10:49:47;3.08;;;1.35;;
45642;SDS011;31358;46.008;11.144;2022-07-23T10:54:39;3.80;;;1.20;;
45642;SDS011;31358;46.008;11.144;2022-07-23T10:57:48;3.78;;;1.35;;
45642;SDS011;31358;46.008;11.144;2022-07-23T11:00:22;2.08;;;1.02;;
45642;SDS011;31358;46.008;11.144;2022-07-23T11:02:50;2.55;;;1.38;;
45642;SDS011;31358;46.008;11.144;2022-07-23T11:06:03;4.05;;;2.05;;
45642;SDS011;31358;46.008;11.144;2022-07-23T11:32:17;3.28;;;1.92;;
45642;SDS011;31358;46.008;11.144;2022-07-23T11:34:49;4.25;;;1.70;;
45642;SDS011;31358;46.008;11.144;2022-07-23T11:40:01;2.80;;;1.30;;
45642;SDS011;31358;46.008;11.144;2022-07-23T11:42:30;6.88;;;1.70;;
45642;SDS011;31358;46.008;11.144;2022-07-23T11:44:55;2.80;;;1.42;;
45642;SDS011;31358;46.008;11.144;2022-07-23T11:47:22;2.10;;;1.20;;
45642;SDS011;31358;46.008;11.144;2022-07-23T11:49:53;4.35;;;1.50;;
45642;SDS011;31358;46.008;11.144;2022-07-23T11:52:23;5.07;;;1.50;;
45642;SDS011;31358;46.008;11.144;2022-07-23T11:55:00;2.13;;;1.40;;
45642;SDS011;31358;46.008;11.144;2022-07-23T11:57:30;2.58;;;1.40;;
45642;SDS011;31358;46.008;11.144;2022-07-23T12:00:02;3.60;;;1.95;;
45642;SDS011;31358;46.008;11.144;2022-07-23T12:02:32;2.97;;;1.55;;
45642;SDS011;31358;46.008;11.144;2022-07-23T12:04:59;3.72;;;1.90;;
45642;SDS011;31358;46.008;11.144;2022-07-23T12:07:29;3.25;;;1.77;;
45642;SDS011;31358;46.008;11.144;2022-07-23T12:15:02;3.08;;;1.85;;
45642;SDS011;31358;46.008;11.144;2022-07-23T12:17:30;5.75;;;1.70;;
45642;SDS011;31358;46.008;11.144;2022-07-23T12:19:57;3.83;;;1.80;;
45642;SDS011;31358;46.008;11.144;2022-07-23T12:22:26;2.90;;;1.35;;
45642;SDS011;31358;46.008;11.144;2022-07-23T12:24:59;4.72;;;1.80;;
45642;SDS011;31358;46.008;11.144;2022-07-23T12:27:27;3.35;;;1.90;;
45642;SDS011;31358;46.008;11.144;2022-07-23T12:29:53;2.60;;;1.30;;
45642;SDS011;31358;46.008;11.144;2022-07-23T12:32:23;6.22;;;1.73;;
45642;SDS011;31358;46.008;11.144;2022-07-23T12:35:12;4.00;;;1.80;;
45642;SDS011;31358;46.008;11.144;2022-07-23T12:37:41;8.65;;;1.88;;
45642;SDS011;31358;46.008;11.144;2022-07-23T12:40:21;4.20;;;1.45;;
45642;SDS011;31358;46.008;11.144;2022-07-23T12:42:51;3.95;;;1.63;;
45642;SDS011;31358;46.008;11.144;2022-07-23T12:45:47;2.60;;;1.40;;
45642;SDS011;31358;46.008;11.144;2022-07-23T12:48:20;4.75;;;1.55;;
45642;SDS011;31358;46.008;11.144;2022-07-23T12:50:49;3.60;;;1.98;;
45642;SDS011;31358;46.008;11.144;2022-07-23T12:53:19;5.40;;;1.90;;
45642;SDS011;31358;46.008;11.144;2022-07-23T12:55:47;4.18;;;1.98;;
45642;SDS011;31358;46.008;11.144;2022-07-23T12:58:17;4.05;;;2.55;;
45642;SDS011;31358;46.008;11.144;2022-07-23T13:03:54;3.83;;;1.52;;
45642;SDS011;31358;46.008;11.144;2022-07-23T13:06:19;2.97;;;1.75;;
45642;SDS011;31358;46.008;11.144;2022-07-23T13:08:44;4.10;;;1.90;;
45642;SDS011;31358;46.008;11.144;2022-07-23T13:11:10;8.00;;;1.90;;
45642;SDS011;31358;46.008;11.144;2022-07-23T13:13:35;2.88;;;1.60;;
45642;SDS011;31358;46.008;11.144;2022-07-23T13:16:01;4.75;;;2.08;;
45642;SDS011;31358;46.008;11.144;2022-07-23T13:18:28;3.22;;;1.60;;
45642;SDS011;31358;46.008;11.144;2022-07-23T13:20:54;6.68;;;2.15;;
45642;SDS011;31358;46.008;11.144;2022-07-23T13:23:20;5.35;;;2.55;;
45642;SDS011;31358;46.008;11.144;2022-07-23T13:25:47;3.58;;;1.92;;
45642;SDS011;31358;46.008;11.144;2022-07-23T13:28:13;5.35;;;2.10;;
45642;SDS011;31358;46.008;11.144;2022-07-23T13:30:40;4.10;;;1.70;;
45642;SDS011;31358;46.008;11.144;2022-07-23T13:33:07;3.65;;;1.80;;
45642;SDS011;31358;46.008;11.144;2022-07-23T13:35:33;5.00;;;1.98;;
45642;SDS011;31358;46.008;11.144;2022-07-23T13:38:01;4.63;;;2.15;;
45642;SDS011;31358;46.008;11.144;2022-07-23T13:40:27;4.55;;;2.00;;
45642;SDS011;31358;46.008;11.144;2022-07-23T13:42:53;3.17;;;1.88;;
45642;SDS011;31358;46.008;11.144;2022-07-23T13:45:19;4.53;;;2.10;;
45642;SDS011;31358;46.008;11.144;2022-07-23T13:47:45;3.78;;;2.00;;
45642;SDS011;31358;46.008;11.144;2022-07-23T13:50:10;4.63;;;2.22;;
45642;SDS011;31358;46.008;11.144;2022-07-23T13:52:36;3.55;;;1.70;;
45642;SDS011;31358;46.008;11.144;2022-07-23T13:55:05;7.20;;;2.38;;
45642;SDS011;31358;46.008;11.144;2022-07-23T13:57:31;4.03;;;2.22;;
45642;SDS011;31358;46.008;11.144;2022-07-23T13:59:57;11.10;;;2.28;;
45642;SDS011;31358;46.008;11.144;2022-07-23T14:02:23;3.95;;;2.13;;
45642;SDS011;31358;46.008;11.144;2022-07-23T14:04:49;5.80;;;1.80;;
45642;SDS011;31358;46.008;11.144;2022-07-23T14:07:15;8.30;;;2.30;;
45642;SDS011;31358;46.008;11.144;2022-07-23T14:09:41;4.72;;;2.03;;
45642;SDS011;31358;46.008;11.144;2022-07-23T14:12:07;2.65;;;1.58;;
45642;SDS011;31358;46.008;11.144;2022-07-23T14:14:33;6.60;;;2.10;;
45642;SDS011;31358;46.008;11.144;2022-07-23T14:16:59;4.82;;;1.95;;
45642;SDS011;31358;46.008;11.144;2022-07-23T14:19:25;5.57;;;2.38;;
45642;SDS011;31358;46.008;11.144;2022-07-23T14:21:50;5.18;;;2.15;;
45642;SDS011;31358;46.008;11.144;2022-07-23T14:24:16;6.18;;;2.42;;
45642;SDS011;31358;46.008;11.144;2022-07-23T14:26:42;4.93;;;2.17;;
45642;SDS011;31358;46.008;11.144;2022-07-23T14:29:08;4.68;;;2.63;;
45642;SDS011;31358;46.008;11.144;2022-07-23T14:31:33;3.53;;;1.85;;
45642;SDS011;31358;46.008;11.144;2022-07-23T14:33:59;3.03;;;2.00;;
45642;SDS011;31358;46.008;11.144;2022-07-23T14:36:25;4.03;;;2.25;;
45642;SDS011;31358;46.008;11.144;2022-07-23T14:38:51;6.07;;;2.00;;
45642;SDS011;31358;46.008;11.144;2022-07-23T14:41:17;4.18;;;1.88;;
45642;SDS011;31358;46.008;11.144;2022-07-23T14:43:43;4.95;;;1.90;;
45642;SDS011;31358;46.008;11.144;2022-07-23T14:46:09;6.63;;;1.85;;
45642;SDS011;31358;46.008;11.144;2022-07-23T14:48:36;4.28;;;2.17;;
45642;SDS011;31358;46.008;11.144;2022-07-23T14:51:02;5.05;;;2.13;;
45642;SDS011;31358;46.008;11.144;2022-07-23T14:53:28;4.72;;;2.00;;
45642;SDS011;31358;46.008;11.144;2022-07-23T14:55:53;5.20;;;2.17;;
45642;SDS011;31358;46.008;11.144;2022-07-23T14:58:21;4.80;;;2.03;;
45642;SDS011;31358;46.008;11.144;2022-07-23T15:00:50;3.83;;;2.45;;
45642;SDS011;31358;46.008;11.144;2022-07-23T15:03:16;7.80;;;2.28;;
45642;SDS011;31358;46.008;11.144;2022-07-23T15:05:42;4.70;;;2.60;;
45642;SDS011;31358;46.008;11.144;2022-07-23T15:08:08;5.47;;;2.60;;
45642;SDS011;31358;46.008;11.144;2022-07-23T15:10:34;4.18;;;2.28;;
45642;SDS011;31358;46.008;11.144;2022-07-23T15:12:59;4.85;;;2.20;;
45642;SDS011;31358;46.008;11.144;2022-07-23T15:15:25;6.38;;;2.22;;
45642;SDS011;31358;46.008;11.144;2022-07-23T15:17:51;3.90;;;2.20;;
45642;SDS011;31358;46.008;11.144;2022-07-23T15:20:16;4.07;;;2.10;;
45642;SDS011;31358;46.008;11.144;2022-07-23T15:22:42;5.38;;;1.98;;
45642;SDS011;31358;46.008;11.144;2022-07-23T15:25:11;4.05;;;1.98;;
45642;SDS011;31358;46.008;11.144;2022-07-23T15:27:36;3.70;;;2.13;;
45642;SDS011;31358;46.008;11.144;2022-07-23T15:30:03;5.45;;;2.25;;